Time;durP1;ratioP1;P1;durP2;ratioP2;P2;SDS_P1;SDS_P2;PMS_P1;PMS_P2;Temp;Humidity;BMP_temperature;BMP_pressure;BME280_temperature;BME280_humidity;BME280_pressure;Samples;Min_cycle;Max_cycle;Signal;HPM_P1;HPM_P2
2024/02/08 00:00:16;;;;;;;14.10;8.50;;;;;;;-128.00;-1.00;-1.00;103292;1254;1003821;-80
2024/02/08 00:03:07;;;;;;;15.50;8.30;;;;;;;-128.00;-1.00;-1.00;103283;1252;1045208;-75
2024/02/08 00:05:36;;;;;;;15.80;7.20;;;;;;;-128.00;-1.00;-1.00;103309;1254;1048204;-80
2024/02/08 00:08:03;;;;;;;13.80;7.10;;;;;;;-128.00;-1.00;-1.00;103222;1254;1062145;-80
2024/02/08 00:10:30;;;;;;;16.90;8.40;;;;;;;-128.00;-1.00;-1.00;103226;1256;1004617;-75
2024/02/08 00:12:56;;;;;;;12.90;8.50;;;;;;;-128.00;-1.00;-1.00;103316;1257;1003726;-80
2024/02/08 00:15:25;;;;;;;16.90;10.30;;;;;;;-128.00;-1.00;-1.00;103418;1254;1005505;-80
2024/02/08 00:17:51;;;;;;;14.70;8.30;;;;;;;-128.00;-1.00;-1.00;103402;1254;1004750;-75
2024/02/08 00:20:18;;;;;;;16.80;8.70;;;;;;;-128.00;-1.00;-1.00;103420;1254;1003923;-75
2024/02/08 00:22:45;;;;;;;12.60;7.50;;;;;;;-128.00;-1.00;-1.00;103297;1254;1004104;-79
2024/02/08 00:25:12;;;;;;;14.30;7.20;;;;;;;-128.00;-1.00;-1.00;103332;1254;1003681;-79
2024/02/08 00:27:39;;;;;;;17.60;9.00;;;;;;;-128.00;-1.00;-1.00;103235;1254;1004837;-75
2024/02/08 00:30:05;;;;;;;16.80;9.80;;;;;;;-128.00;-1.00;-1.00;103293;1253;1004595;-75
2024/02/08 00:32:32;;;;;;;25.00;12.10;;;;;;;-128.00;-1.00;-1.00;103272;1254;1004361;-76
2024/02/08 00:35:03;;;;;;;18.10;10.40;;;;;;;-128.00;-1.00;-1.00;103300;1252;1004377;-79
2024/02/08 00:37:31;;;;;;;16.60;9.00;;;;;;;-128.00;-1.00;-1.00;105595;1253;1062183;-76
2024/02/08 00:39:57;;;;;;;18.50;10.00;;;;;;;-128.00;-1.00;-1.00;105610;1253;1003976;-75
2024/02/08 00:42:24;;;;;;;17.70;8.90;;;;;;;-128.00;-1.00;-1.00;105586;1253;1004641;-76
2024/02/08 00:44:51;;;;;;;56.70;21.60;;;;;;;-128.00;-1.00;-1.00;105552;1254;1003626;-75
2024/02/08 00:47:17;;;;;;;40.60;19.30;;;;;;;-128.00;-1.00;-1.00;105574;1254;1004558;-76
2024/02/08 00:49:48;;;;;;;43.90;21.80;;;;;;;-128.00;-1.00;-1.00;105579;1254;1004199;-75
2024/02/08 00:52:14;;;;;;;40.70;18.00;;;;;;;-128.00;-1.00;-1.00;105584;1253;1045689;-76
2024/02/08 00:54:41;;;;;;;33.90;15.30;;;;;;;-128.00;-1.00;-1.00;105573;1253;1004221;-75
2024/02/08 00:57:10;;;;;;;25.50;14.40;;;;;;;-128.00;-1.00;-1.00;105568;1253;1004454;-75
2024/02/08 00:59:40;;;;;;;26.50;14.80;;;;;;;-128.00;-1.00;-1.00;105625;1254;1003671;-80
2024/02/08 01:02:06;;;;;;;20.20;10.90;;;;;;;-128.00;-1.00;-1.00;105517;1254;1059600;-80
2024/02/08 01:04:33;;;;;;;15.70;9.20;;;;;;;-128.00;-1.00;-1.00;105610;1254;1004822;-79
2024/02/08 01:06:59;;;;;;;26.80;12.30;;;;;;;-128.00;-1.00;-1.00;105637;1254;1003530;-79
2024/02/08 01:09:26;;;;;;;28.30;12.70;;;;;;;-128.00;-1.00;-1.00;105513;1254;1004571;-76
2024/02/08 01:11:52;;;;;;;21.90;11.80;;;;;;;-128.00;-1.00;-1.00;105598;1253;1004368;-75
2024/02/08 01:14:21;;;;;;;16.50;9.70;;;;;;;-128.00;-1.00;-1.00;105644;1252;1004376;-76
2024/02/08 01:16:51;;;;;;;16.50;8.90;;;;;;;-128.00;-1.00;-1.00;105201;1254;1045662;-76
2024/02/08 01:19:22;;;;;;;16.80;10.20;;;;;;;-128.00;-1.00;-1.00;103302;1254;1047523;-75
2024/02/08 01:21:51;;;;;;;19.40;8.80;;;;;;;-128.00;-1.00;-1.00;103177;1253;1061702;-76
2024/02/08 01:24:18;;;;;;;18.20;9.10;;;;;;;-128.00;-1.00;-1.00;105646;1253;1058407;-76
2024/02/08 01:26:45;;;;;;;22.00;12.70;;;;;;;-128.00;-1.00;-1.00;105568;1253;1003557;-79
2024/02/08 01:29:12;;;;;;;20.90;11.30;;;;;;;-128.00;-1.00;-1.00;104551;1252;1004291;-78
2024/02/08 01:31:40;;;;;;;19.10;10.00;;;;;;;-128.00;-1.00;-1.00;103303;1255;1005536;-78
2024/02/08 01:34:07;;;;;;;16.30;10.20;;;;;;;-128.00;-1.00;-1.00;103209;1254;1004309;-78
2024/02/08 01:36:35;;;;;;;13.50;9.30;;;;;;;-128.00;-1.00;-1.00;103237;1254;1003945;-75
2024/02/08 01:39:04;;;;;;;18.90;10.10;;;;;;;-128.00;-1.00;-1.00;103199;1254;1003896;-79
2024/02/08 01:41:31;;;;;;;;;;;;;;;-128.00;-1.00;-1.00;105671;1254;1044729;-78
2024/02/08 01:44:01;;;;;;;14.20;7.40;;;;;;;-128.00;-1.00;-1.00;105643;1253;1003424;-75
2024/02/08 01:46:27;;;;;;;18.50;8.50;;;;;;;-128.00;-1.00;-1.00;105698;1253;1060996;-79
2024/02/08 01:48:53;;;;;;;17.30;10.50;;;;;;;-128.00;-1.00;-1.00;105707;1253;1003644;-75
2024/02/08 01:51:22;;;;;;;22.90;14.30;;;;;;;-128.00;-1.00;-1.00;105725;1251;1003758;-78
2024/02/08 01:53:49;;;;;;;;;;;;;;;-128.00;-1.00;-1.00;105645;1254;1045519;-74
2024/02/08 01:56:16;;;;;;;27.70;15.80;;;;;;;-128.00;-1.00;-1.00;105662;1253;1004506;-79
2024/02/08 01:58:43;;;;;;;32.60;16.80;;;;;;;-128.00;-1.00;-1.00;105652;1253;1004215;-79
2024/02/08 02:01:10;;;;;;;36.50;20.10;;;;;;;-128.00;-1.00;-1.00;103869;1254;1004476;-74
2024/02/08 02:03:38;;;;;;;33.10;18.80;;;;;;;-128.00;-1.00;-1.00;103283;1254;1005312;-74
2024/02/08 02:06:08;;;;;;;16.20;10.30;;;;;;;-128.00;-1.00;-1.00;105656;1252;1003286;-78
2024/02/08 02:08:34;;;;;;;21.20;12.60;;;;;;;-128.00;-1.00;-1.00;105681;1252;1046850;-75
2024/02/08 02:11:05;;;;;;;23.40;14.60;;;;;;;-128.00;-1.00;-1.00;105624;1252;1004464;-75
2024/02/08 02:13:34;;;;;;;25.80;16.10;;;;;;;-128.00;-1.00;-1.00;105689;1252;1058282;-78
2024/02/08 02:16:01;;;;;;;24.60;14.80;;;;;;;-128.00;-1.00;-1.00;105666;1253;1059105;-78
2024/02/08 02:18:27;;;;;;;30.00;18.90;;;;;;;-128.00;-1.00;-1.00;105655;1252;1004881;-75
2024/02/08 02:20:57;;;;;;;23.00;13.80;;;;;;;-128.00;-1.00;-1.00;105645;1253;1004369;-75
2024/02/08 02:23:24;;;;;;;21.40;13.30;;;;;;;-128.00;-1.00;-1.00;105657;1253;1061388;-78
2024/02/08 02:25:53;;;;;;;21.80;11.60;;;;;;;-128.00;-1.00;-1.00;105661;1252;1004659;-75
2024/02/08 02:28:19;;;;;;;18.00;10.90;;;;;;;-128.00;-1.00;-1.00;105597;1252;1059741;-78
2024/02/08 02:30:46;;;;;;;18.70;12.10;;;;;;;-128.00;-1.00;-1.00;105615;1254;1003404;-75
2024/02/08 02:33:13;;;;;;;20.80;13.00;;;;;;;-128.00;-1.00;-1.00;105628;1252;1004212;-78
2024/02/08 02:35:41;;;;;;;22.50;13.40;;;;;;;-128.00;-1.00;-1.00;105676;1253;1004139;-75
2024/02/08 02:38:12;;;;;;;18.50;11.40;;;;;;;-128.00;-1.00;-1.00;105674;1253;1004362;-80
2024/02/08 02:40:41;;;;;;;18.70;11.30;;;;;;;-128.00;-1.00;-1.00;103283;1254;1059004;-78
2024/02/08 02:43:13;;;;;;;;;;;;;;;-128.00;-1.00;-1.00;103326;1254;1047311;-74
2024/02/08 02:45:40;;;;;;;11.80;7.80;;;;;;;-128.00;-1.00;-1.00;103319;1252;1048072;-78
2024/02/08 02:48:07;;;;;;;14.50;8.50;;;;;;;-128.00;-1.00;-1.00;103214;1252;1004801;-74
2024/02/08 02:50:34;;;;;;;14.90;8.30;;;;;;;-128.00;-1.00;-1.00;103248;1253;1006741;-79
2024/02/08 02:53:01;;;;;;;12.00;7.80;;;;;;;-128.00;-1.00;-1.00;103251;1254;1004010;-79
2024/02/08 02:55:27;;;;;;;13.60;7.30;;;;;;;-128.00;-1.00;-1.00;103280;1254;1004966;-79
2024/02/08 02:57:57;;;;;;;17.40;8.60;;;;;;;-128.00;-1.00;-1.00;103267;1253;1004302;-74
2024/02/08 03:00:24;;;;;;;18.80;10.40;;;;;;;-128.00;-1.00;-1.00;103248;1256;1061507;-74
2024/02/08 03:02:52;;;;;;;21.20;10.20;;;;;;;-128.00;-1.00;-1.00;103222;1253;1004611;-79
2024/02/08 03:05:20;;;;;;;18.60;10.10;;;;;;;-128.00;-1.00;-1.00;103305;1257;1004958;-74
2024/02/08 03:07:48;;;;;;;16.20;8.10;;;;;;;-128.00;-1.00;-1.00;103296;1253;1047312;-75
2024/02/08 03:10:19;;;;;;;27.50;13.60;;;;;;;-128.00;-1.00;-1.00;103355;1254;1003786;-79
2024/02/08 03:12:49;;;;;;;19.10;10.80;;;;;;;-128.00;-1.00;-1.00;103266;1253;1061711;-75
2024/02/08 03:15:16;;;;;;;16.10;9.60;;;;;;;-128.00;-1.00;-1.00;103259;1253;1059085;-78
2024/02/08 03:17:43;;;;;;;19.00;11.10;;;;;;;-128.00;-1.00;-1.00;103218;1253;1004898;-79
2024/02/08 03:20:11;;;;;;;19.70;9.40;;;;;;;-128.00;-1.00;-1.00;103271;1254;1004564;-79
2024/02/08 03:22:37;;;;;;;14.90;8.70;;;;;;;-128.00;-1.00;-1.00;103382;1253;1003465;-79
2024/02/08 03:25:07;;;;;;;13.40;8.30;;;;;;;-128.00;-1.00;-1.00;103149;1253;1004416;-75
2024/02/08 03:27:34;;;;;;;16.00;8.90;;;;;;;-128.00;-1.00;-1.00;103139;1253;1058311;-74
2024/02/08 03:30:00;;;;;;;16.60;9.20;;;;;;;-128.00;-1.00;-1.00;103148;1253;1004900;-74
2024/02/08 03:32:27;;;;;;;13.90;8.30;;;;;;;-128.00;-1.00;-1.00;103181;1254;1004962;-79
2024/02/08 03:34:54;;;;;;;13.60;8.60;;;;;;;-128.00;-1.00;-1.00;103122;1253;1004625;-77
2024/02/08 03:37:21;;;;;;;15.00;8.00;;;;;;;-128.00;-1.00;-1.00;103121;1253;1004524;-78
2024/02/08 03:39:47;;;;;;;12.60;9.00;;;;;;;-128.00;-1.00;-1.00;103166;1254;1004198;-75
2024/02/08 03:42:16;;;;;;;13.90;7.80;;;;;;;-128.00;-1.00;-1.00;103167;1256;1005074;-75
2024/02/08 03:44:43;;;;;;;13.00;6.70;;;;;;;-128.00;-1.00;-1.00;103108;1254;1046049;-75
2024/02/08 03:47:09;;;;;;;11.40;6.90;;;;;;;-128.00;-1.00;-1.00;103240;1253;1004361;-74
2024/02/08 03:49:40;;;;;;;10.10;6.50;;;;;;;-128.00;-1.00;-1.00;103151;1252;1004450;-74
2024/02/08 03:52:08;;;;;;;32.40;12.50;;;;;;;-128.00;-1.00;-1.00;103143;1253;1058878;-74
2024/02/08 03:54:36;;;;;;;13.00;7.50;;;;;;;-128.00;-1.00;-1.00;103126;1253;1004781;-79
2024/02/08 03:57:06;;;;;;;10.20;5.60;;;;;;;-128.00;-1.00;-1.00;103060;1253;1007434;-74
2024/02/08 03:59:35;;;;;;;16.00;7.10;;;;;;;-128.00;-1.00;-1.00;103096;1253;1047509;-79
2024/02/08 04:02:03;;;;;;;10.50;6.30;;;;;;;-128.00;-1.00;-1.00;103105;1257;1004062;-74
2024/02/08 04:05:06;;;;;;;8.60;5.60;;;;;;;-128.00;-1.00;-1.00;103238;1253;1005138;-79
2024/02/08 04:53:30;;;;;;;10.30;6.20;;;;;;;-128.00;-1.00;-1.00;103194;1253;1045864;-79
2024/02/08 04:54:37;;;;;;;12.50;7.40;;;;;;;-128.00;-1.00;-1.00;103079;1253;1047259;-75
2024/02/08 04:57:07;;;;;;;15.20;8.50;;;;;;;-128.00;-1.00;-1.00;103164;1253;1005824;-75
2024/02/08 04:59:38;;;;;;;13.60;9.90;;;;;;;-128.00;-1.00;-1.00;103052;1253;1060935;-74
2024/02/08 05:02:06;;;;;;;19.40;10.90;;;;;;;-128.00;-1.00;-1.00;103133;1252;1059980;-78
2024/02/08 05:04:35;;;;;;;23.50;11.50;;;;;;;-128.00;-1.00;-1.00;103113;1253;1003917;-75
2024/02/08 05:07:06;;;;;;;28.70;15.00;;;;;;;-128.00;-1.00;-1.00;103106;1254;1046279;-79
2024/02/08 05:09:32;;;;;;;34.90;18.90;;;;;;;-128.00;-1.00;-1.00;103106;1253;1061427;-78
2024/02/08 05:11:59;;;;;;;33.70;18.90;;;;;;;-128.00;-1.00;-1.00;103226;1252;1004533;-74
2024/02/08 05:14:26;;;;;;;21.40;12.90;;;;;;;-128.00;-1.00;-1.00;103150;1253;1003798;-75
2024/02/08 05:16:56;;;;;;;22.80;12.60;;;;;;;-128.00;-1.00;-1.00;103066;1253;1004344;-79
2024/02/08 05:19:28;;;;;;;18.80;10.70;;;;;;;-128.00;-1.00;-1.00;103241;1253;1046340;-78
2024/02/08 05:21:58;;;;;;;14.70;9.70;;;;;;;-128.00;-1.00;-1.00;103247;1252;1061307;-75
2024/02/08 05:24:28;;;;;;;18.50;11.10;;;;;;;-128.00;-1.00;-1.00;103189;1256;1059012;-75
2024/02/08 05:26:55;;;;;;;21.10;12.10;;;;;;;-128.00;-1.00;-1.00;103217;1252;1059997;-78
2024/02/08 05:29:21;;;;;;;19.80;11.70;;;;;;;-128.00;-1.00;-1.00;103094;1252;1004350;-75
2024/02/08 05:31:49;;;;;;;27.20;13.60;;;;;;;-128.00;-1.00;-1.00;103167;1253;1004758;-75
2024/02/08 05:34:16;;;;;;;29.60;16.90;;;;;;;-128.00;-1.00;-1.00;103088;1259;1004714;-79
2024/02/08 05:36:43;;;;;;;31.60;16.50;;;;;;;-128.00;-1.00;-1.00;103144;1252;1004194;-78
2024/02/08 05:39:10;;;;;;;30.10;16.90;;;;;;;-128.00;-1.00;-1.00;103227;1256;1004070;-76
2024/02/08 05:41:37;;;;;;;31.10;16.50;;;;;;;-128.00;-1.00;-1.00;103104;1253;1005146;-79
2024/02/08 05:44:05;;;;;;;23.20;13.50;;;;;;;-128.00;-1.00;-1.00;103086;1253;1003648;-79
2024/02/08 05:46:37;;;;;;;29.20;14.20;;;;;;;-128.00;-1.00;-1.00;102878;1253;1004934;-79
2024/02/08 05:49:04;;;;;;;20.70;12.30;;;;;;;-128.00;-1.00;-1.00;103093;1253;1058498;-79
2024/02/08 05:51:31;;;;;;;16.50;9.70;;;;;;;-128.00;-1.00;-1.00;103044;1253;1005193;-74
2024/02/08 05:54:01;;;;;;;18.50;10.20;;;;;;;-128.00;-1.00;-1.00;103050;1254;1004976;-75
2024/02/08 05:56:30;;;;;;;12.80;8.40;;;;;;;-128.00;-1.00;-1.00;103043;1253;1047878;-75
2024/02/08 05:59:01;;;;;;;12.90;7.00;;;;;;;-128.00;-1.00;-1.00;103137;1253;1061374;-75
2024/02/08 06:01:31;;;;;;;13.60;6.70;;;;;;;-128.00;-1.00;-1.00;103027;1258;1057461;-75
2024/02/08 06:04:01;;;;;;;16.00;7.10;;;;;;;-128.00;-1.00;-1.00;102962;1252;1059923;-79
2024/02/08 06:06:34;;;;;;;9.80;5.10;;;;;;;-128.00;-1.00;-1.00;103140;1253;1046466;-79
2024/02/08 06:09:08;;;;;;;12.70;5.50;;;;;;;-128.00;-1.00;-1.00;103039;1253;1047389;-79
2024/02/08 06:11:38;;;;;;;9.40;5.00;;;;;;;-128.00;-1.00;-1.00;102889;1253;1061206;-79
2024/02/08 06:14:21;;;;;;;10.50;5.10;;;;;;;-128.00;-1.00;-1.00;103250;1252;1059700;-79
2024/02/08 06:16:48;;;;;;;13.80;6.30;;;;;;;-128.00;-1.00;-1.00;103356;1253;1059726;-78
2024/02/08 06:19:15;;;;;;;14.40;7.10;;;;;;;-128.00;-1.00;-1.00;103322;1251;1005606;-75
2024/02/08 06:21:43;;;;;;;18.80;8.50;;;;;;;-128.00;-1.00;-1.00;103662;1255;1004740;-79
2024/02/08 06:26:58;;;;;;;20.00;9.40;;;;;;;-128.00;-1.00;-1.00;103444;1253;1058316;-74
2024/02/08 06:29:38;;;;;;;21.70;10.90;;;;;;;-128.00;-1.00;-1.00;103277;1254;1060985;-78
2024/02/08 06:38:02;;;;;;;21.10;11.10;;;;;;;-128.00;-1.00;-1.00;103068;1253;1061884;-75
2024/02/08 07:37:36;;;;;;;50.80;27.10;;;;;;;-128.00;-1.00;-1.00;103464;1252;1060740;-75
2024/02/08 07:40:34;;;;;;;43.10;28.90;;;;;;;-128.00;-1.00;-1.00;103178;1253;1045353;-79
2024/02/08 07:45:46;;;;;;;;;;;;;;;-128.00;-1.00;-1.00;103240;1253;1062738;-79
2024/02/08 07:48:13;;;;;;;31.40;15.50;;;;;;;-128.00;-1.00;-1.00;103202;1253;1059369;-75
2024/02/08 07:50:47;;;;;;;31.70;18.20;;;;;;;-128.00;-1.00;-1.00;103223;1253;1004327;-76
2024/02/08 07:53:28;;;;;;;35.40;20.40;;;;;;;-128.00;-1.00;-1.00;103203;1252;1046274;-80
2024/02/08 07:56:24;;;;;;;45.20;25.20;;;;;;;-128.00;-1.00;-1.00;103264;1256;1046606;-75
2024/02/08 07:58:49;;;;;;;53.70;29.50;;;;;;;-128.00;-1.00;-1.00;103377;1255;1064319;-76
2024/02/08 08:01:17;;;;;;;47.70;26.00;;;;;;;-128.00;-1.00;-1.00;103246;1253;1058489;-80
2024/02/08 08:03:45;;;;;;;50.10;25.80;;;;;;;-128.00;-1.00;-1.00;103187;1252;1004183;-76
2024/02/08 08:06:15;;;;;;;41.40;21.90;;;;;;;-128.00;-1.00;-1.00;103223;1253;1004737;-76
2024/02/08 08:08:43;;;;;;;105.80;48.10;;;;;;;-128.00;-1.00;-1.00;103309;1252;1047705;-76
2024/02/08 08:11:17;;;;;;;54.80;29.90;;;;;;;-128.00;-1.00;-1.00;103175;1252;1061389;-80
2024/02/08 08:14:09;;;;;;;54.40;29.60;;;;;;;-128.00;-1.00;-1.00;103232;1253;1058002;-76
2024/02/08 08:16:35;;;;;;;42.70;25.00;;;;;;;-128.00;-1.00;-1.00;103205;1253;1060535;-75
2024/02/08 08:19:12;;;;;;;37.00;21.60;;;;;;;-128.00;-1.00;-1.00;103264;1253;1004530;-76
2024/02/08 08:22:03;;;;;;;37.10;20.50;;;;;;;-128.00;-1.00;-1.00;103210;1253;1047899;-79
2024/02/08 08:24:30;;;;;;;33.60;18.70;;;;;;;-128.00;-1.00;-1.00;103319;1253;1061093;-80
2024/02/08 08:27:25;;;;;;;37.00;20.50;;;;;;;-128.00;-1.00;-1.00;103299;1252;1003875;-79
2024/02/08 08:29:58;;;;;;;37.30;22.20;;;;;;;-128.00;-1.00;-1.00;103249;1253;1062206;-80
2024/02/08 08:37:44;;;;;;;100.50;48.00;;;;;;;-128.00;-1.00;-1.00;103338;1253;1060496;-76
2024/02/08 08:40:24;;;;;;;71.50;40.90;;;;;;;-128.00;-1.00;-1.00;103240;1252;1005338;-79
2024/02/08 08:42:54;;;;;;;32.60;21.60;;;;;;;-128.00;-1.00;-1.00;103510;1256;1060138;-75
2024/02/08 08:45:21;;;;;;;39.40;22.50;;;;;;;-128.00;-1.00;-1.00;103272;1253;1047186;-75
2024/02/08 08:48:00;;;;;;;32.30;17.10;;;;;;;-128.00;-1.00;-1.00;103354;1253;1004915;-75
2024/02/08 08:50:31;;;;;;;32.90;18.80;;;;;;;-128.00;-1.00;-1.00;103297;1253;1062286;-75
2024/02/08 08:53:19;;;;;;;65.60;32.00;;;;;;;-128.00;-1.00;-1.00;103214;1253;1057866;-75
2024/02/08 08:55:50;;;;;;;55.30;31.60;;;;;;;-128.00;-1.00;-1.00;103281;1253;1061419;-80
2024/02/08 08:58:17;;;;;;;35.10;21.70;;;;;;;-128.00;-1.00;-1.00;103278;1252;1048146;-80
2024/02/08 09:00:47;;;;;;;21.40;12.70;;;;;;;-128.00;-1.00;-1.00;103295;1253;1003963;-75
2024/02/08 09:03:26;;;;;;;18.60;10.70;;;;;;;-128.00;-1.00;-1.00;103491;1252;1061711;-76
2024/02/08 09:05:57;;;;;;;29.30;15.40;;;;;;;-128.00;-1.00;-1.00;103439;1255;1057882;-76
2024/02/08 09:08:25;;;;;;;25.40;15.30;;;;;;;-128.00;-1.00;-1.00;103342;1253;1062419;-75
2024/02/08 09:10:51;;;;;;;28.30;15.00;;;;;;;-128.00;-1.00;-1.00;103430;1253;1004025;-75
2024/02/08 09:13:21;;;;;;;25.20;14.80;;;;;;;-128.00;-1.00;-1.00;103296;1253;1004684;-76
2024/02/08 09:16:29;;;;;;;24.30;12.80;;;;;;;-128.00;-1.00;-1.00;103211;1253;1061124;-76
2024/02/08 09:21:32;;;;;;;25.60;13.90;;;;;;;-128.00;-1.00;-1.00;103453;1252;1060461;-79
2024/02/08 09:24:11;;;;;;;23.80;14.00;;;;;;;-128.00;-1.00;-1.00;103148;1252;1047088;-75
2024/02/08 09:27:00;;;;;;;37.80;20.60;;;;;;;-128.00;-1.00;-1.00;103199;1253;1050112;-76
2024/02/08 09:29:27;;;;;;;30.80;18.20;;;;;;;-128.00;-1.00;-1.00;103247;1253;1062160;-80
2024/02/08 09:31:58;;;;;;;226.10;109.10;;;;;;;-128.00;-1.00;-1.00;103335;1252;1005212;-80
2024/02/08 09:34:36;;;;;;;59.60;36.00;;;;;;;-128.00;-1.00;-1.00;103414;1252;1058420;-79
2024/02/08 09:37:07;;;;;;;72.60;40.30;;;;;;;-128.00;-1.00;-1.00;103220;1253;1046326;-80
2024/02/08 09:42:37;;;;;;;34.10;21.30;;;;;;;-128.00;-1.00;-1.00;103339;1254;1062852;-80
2024/02/08 09:45:18;;;;;;;36.00;23.50;;;;;;;-128.00;-1.00;-1.00;103345;1253;1058479;-75
2024/02/08 09:47:59;;;;;;;42.30;27.20;;;;;;;-128.00;-1.00;-1.00;103245;1253;1059679;-75
2024/02/08 09:50:31;;;;;;;21.70;15.30;;;;;;;-128.00;-1.00;-1.00;103243;1253;1046162;-76
2024/02/08 09:53:07;;;;;;;24.40;13.40;;;;;;;-128.00;-1.00;-1.00;103492;1253;1046755;-80
2024/02/08 09:55:33;;;;;;;32.40;17.70;;;;;;;-128.00;-1.00;-1.00;103097;1253;1061611;-76
2024/02/08 09:58:04;;;;;;;20.90;13.40;;;;;;;-128.00;-1.00;-1.00;103350;1253;1004255;-80
2024/02/08 10:00:36;;;;;;;18.40;10.70;;;;;;;-128.00;-1.00;-1.00;103333;1254;1058752;-75
2024/02/08 10:03:04;;;;;;;23.60;13.00;;;;;;;-128.00;-1.00;-1.00;102965;1253;1048388;-81
2024/02/08 10:05:50;;;;;;;19.50;10.20;;;;;;;-128.00;-1.00;-1.00;103274;1252;1005507;-75
2024/02/08 10:08:28;;;;;;;18.10;10.30;;;;;;;-128.00;-1.00;-1.00;103240;1253;1062463;-76
2024/02/08 10:16:43;;;;;;;12.80;8.40;;;;;;;-128.00;-1.00;-1.00;103301;1253;1045994;-81
2024/02/08 10:19:48;;;;;;;16.50;9.70;;;;;;;-128.00;-1.00;-1.00;103346;1253;1046546;-79
2024/02/08 10:22:17;;;;;;;26.40;13.70;;;;;;;-128.00;-1.00;-1.00;103129;1252;1062178;-76
2024/02/08 10:27:21;;;;;;;20.10;10.60;;;;;;;-128.00;-1.00;-1.00;103481;1253;1061326;-75
2024/02/08 10:29:50;;;;;;;13.50;8.90;;;;;;;-128.00;-1.00;-1.00;103551;1252;1048984;-78
2024/02/08 10:32:20;;;;;;;21.50;12.80;;;;;;;-128.00;-1.00;-1.00;103416;1253;1046374;-80
2024/02/08 10:34:52;;;;;;;14.40;9.70;;;;;;;-128.00;-1.00;-1.00;103387;1253;1061166;-75
2024/02/08 10:40:28;;;;;;;17.50;8.80;;;;;;;-128.00;-1.00;-1.00;103403;1253;1061085;-80
2024/02/08 10:42:53;;;;;;;20.00;11.80;;;;;;;-128.00;-1.00;-1.00;103328;1253;1044861;-80
2024/02/08 10:45:23;;;;;;;23.80;12.80;;;;;;;-128.00;-1.00;-1.00;105647;1252;1047184;-80
2024/02/08 10:47:51;;;;;;;19.50;11.80;;;;;;;-128.00;-1.00;-1.00;105612;1253;1061324;-80
2024/02/08 10:50:24;;;;;;;20.90;12.10;;;;;;;-128.00;-1.00;-1.00;105603;1252;1057191;-76
2024/02/08 10:52:51;;;;;;;22.20;13.10;;;;;;;-128.00;-1.00;-1.00;105571;1253;1059390;-80
2024/02/08 10:55:30;;;;;;;24.10;14.10;;;;;;;-128.00;-1.00;-1.00;105619;1252;1004682;-79
2024/02/08 11:03:33;;;;;;;24.70;15.20;;;;;;;-128.00;-1.00;-1.00;105626;1253;1057584;-82
2024/02/08 11:06:03;;;;;;;23.70;13.90;;;;;;;-128.00;-1.00;-1.00;105602;1253;1060070;-76
2024/02/08 11:08:33;;;;;;;24.90;14.50;;;;;;;-128.00;-1.00;-1.00;105593;1256;1045294;-80
2024/02/08 11:11:04;;;;;;;29.20;16.50;;;;;;;-128.00;-1.00;-1.00;105418;1253;1047540;-76
2024/02/08 11:13:30;;;;;;;25.50;15.30;;;;;;;-128.00;-1.00;-1.00;105494;1253;1061275;-79
2024/02/08 11:16:04;;;;;;;25.70;15.00;;;;;;;-128.00;-1.00;-1.00;105573;1251;1004948;-76
2024/02/08 11:18:35;;;;;;;26.20;13.60;;;;;;;-128.00;-1.00;-1.00;105563;1252;1060104;-76
2024/02/08 11:21:04;;;;;;;27.50;15.20;;;;;;;-128.00;-1.00;-1.00;105609;1252;1045423;-76
2024/02/08 11:23:32;;;;;;;24.20;13.30;;;;;;;-128.00;-1.00;-1.00;105592;1252;1047288;-80
2024/02/08 11:26:06;;;;;;;30.60;17.30;;;;;;;-128.00;-1.00;-1.00;105526;1253;1004195;-76
2024/02/08 11:28:44;;;;;;;24.40;14.30;;;;;;;-128.00;-1.00;-1.00;105656;1253;1059031;-76
2024/02/08 11:31:16;;;;;;;21.70;13.80;;;;;;;-128.00;-1.00;-1.00;105650;1252;1058818;-80
2024/02/08 11:33:45;;;;;;;25.30;15.50;;;;;;;-128.00;-1.00;-1.00;105612;1251;1045582;-76
2024/02/08 11:36:12;;;;;;;35.80;20.60;;;;;;;-128.00;-1.00;-1.00;105604;1253;1048414;-76
2024/02/08 11:38:57;;;;;;;29.40;16.80;;;;;;;-128.00;-1.00;-1.00;105688;1252;1004629;-80
2024/02/08 11:41:26;;;;;;;30.10;18.70;;;;;;;-128.00;-1.00;-1.00;105634;1252;1058380;-80
2024/02/08 11:44:05;;;;;;;24.90;15.90;;;;;;;-128.00;-1.00;-1.00;105639;1253;1060304;-76
2024/02/08 11:46:37;;;;;;;25.10;15.20;;;;;;;-128.00;-1.00;-1.00;105639;1253;1045782;-76
2024/02/08 11:49:14;;;;;;;20.90;12.50;;;;;;;-128.00;-1.00;-1.00;105625;1253;1046761;-80
2024/02/08 11:51:48;;;;;;;21.30;13.80;;;;;;;-128.00;-1.00;-1.00;105439;1253;1061429;-80
2024/02/08 11:54:28;;;;;;;22.40;13.80;;;;;;;-128.00;-1.00;-1.00;105556;1253;1058721;-76
2024/02/08 11:56:58;;;;;;;22.40;14.10;;;;;;;-128.00;-1.00;-1.00;105570;1253;1058974;-80
2024/02/08 11:59:24;;;;;;;18.90;11.70;;;;;;;-128.00;-1.00;-1.00;105589;1253;1045097;-80
2024/02/08 12:01:51;;;;;;;20.80;12.80;;;;;;;-128.00;-1.00;-1.00;105615;1253;1004007;-80
2024/02/08 12:04:18;;;;;;;20.50;13.40;;;;;;;-128.00;-1.00;-1.00;105573;1254;1004519;-80
2024/02/08 12:06:46;;;;;;;23.80;15.30;;;;;;;-128.00;-1.00;-1.00;105601;1252;1004517;-80
2024/02/08 12:09:22;;;;;;;35.80;20.00;;;;;;;-128.00;-1.00;-1.00;105582;1253;1004916;-76
2024/02/08 12:11:51;;;;;;;36.90;18.40;;;;;;;-128.00;-1.00;-1.00;105423;1253;1045224;-79
2024/02/08 12:14:18;;;;;;;30.10;17.50;;;;;;;-128.00;-1.00;-1.00;105602;1252;1046561;-79
2024/02/08 12:16:50;;;;;;;33.00;18.90;;;;;;;-128.00;-1.00;-1.00;105576;1253;1003958;-76
2024/02/08 12:19:17;;;;;;;34.40;17.60;;;;;;;-128.00;-1.00;-1.00;105624;1253;1059140;-76
2024/02/08 12:21:43;;;;;;;30.50;18.40;;;;;;;-128.00;-1.00;-1.00;105631;1253;1005013;-76
2024/02/08 12:24:15;;;;;;;31.30;17.40;;;;;;;-128.00;-1.00;-1.00;105637;1253;1004304;-80
2024/02/08 12:26:44;;;;;;;32.90;18.60;;;;;;;-128.00;-1.00;-1.00;105631;1253;1047171;-76
2024/02/08 12:29:16;;;;;;;31.90;19.00;;;;;;;-128.00;-1.00;-1.00;105539;1253;1061560;-80
2024/02/08 12:31:45;;;;;;;29.30;17.40;;;;;;;-128.00;-1.00;-1.00;105592;1253;1058642;-80
2024/02/08 12:34:13;;;;;;;;;;;;;;;-128.00;-1.00;-1.00;105601;1253;1059792;-80
2024/02/08 12:36:44;;;;;;;32.50;18.10;;;;;;;-128.00;-1.00;-1.00;105575;1253;1003967;-76
2024/02/08 12:39:17;;;;;;;29.20;16.80;;;;;;;-128.00;-1.00;-1.00;105551;1253;1046269;-76
2024/02/08 12:41:49;;;;;;;25.60;16.50;;;;;;;-128.00;-1.00;-1.00;105538;1253;1061309;-80
2024/02/08 12:44:20;;;;;;;25.50;15.80;;;;;;;-128.00;-1.00;-1.00;105549;1253;1057603;-76
2024/02/08 12:46:53;;;;;;;30.00;17.70;;;;;;;-128.00;-1.00;-1.00;105613;1252;1059202;-80
2024/02/08 12:49:19;;;;;;;35.70;19.40;;;;;;;-128.00;-1.00;-1.00;105570;1253;1044733;-80
2024/02/08 12:51:49;;;;;;;33.40;19.50;;;;;;;-128.00;-1.00;-1.00;105591;1253;1004881;-76
2024/02/08 12:54:15;;;;;;;31.60;19.00;;;;;;;-128.00;-1.00;-1.00;105524;1255;1061552;-80
2024/02/08 12:56:45;;;;;;;29.60;17.50;;;;;;;-128.00;-1.00;-1.00;105577;1253;1003797;-76
2024/02/08 12:59:11;;;;;;;38.50;21.40;;;;;;;-128.00;-1.00;-1.00;105576;1253;1059127;-76
2024/02/08 13:01:39;;;;;;;48.50;25.30;;;;;;;-128.00;-1.00;-1.00;105582;1253;1003911;-76
2024/02/08 13:04:06;;;;;;;48.20;26.80;;;;;;;-128.00;-1.00;-1.00;105582;1253;1004445;-76
2024/02/08 13:06:33;;;;;;;50.40;28.20;;;;;;;-128.00;-1.00;-1.00;105591;1255;1004047;-80
2024/02/08 13:11:49;;;;;;;42.50;25.70;;;;;;;-128.00;-1.00;-1.00;105560;1253;1058959;-76
2024/02/08 13:14:19;;;;;;;45.40;29.30;;;;;;;-128.00;-1.00;-1.00;105527;1253;1003530;-76
2024/02/08 13:16:47;;;;;;;42.10;24.80;;;;;;;-128.00;-1.00;-1.00;105573;1253;1047533;-80
2024/02/08 13:19:19;;;;;;;50.70;27.90;;;;;;;-128.00;-1.00;-1.00;105541;1253;1003364;-80
2024/02/08 13:21:45;;;;;;;41.90;26.60;;;;;;;-128.00;-1.00;-1.00;105593;1256;1058838;-76
2024/02/08 13:24:12;;;;;;;40.60;24.00;;;;;;;-128.00;-1.00;-1.00;105551;1252;1004501;-76
2024/02/08 13:26:39;;;;;;;38.40;23.50;;;;;;;-128.00;-1.00;-1.00;105588;1252;1004569;-80
2024/02/08 13:29:05;;;;;;;33.20;22.90;;;;;;;-128.00;-1.00;-1.00;105550;1253;1003316;-80
2024/02/08 13:31:32;;;;;;;37.20;21.80;;;;;;;-128.00;-1.00;-1.00;105608;1252;1004550;-80
2024/02/08 13:34:00;;;;;;;34.10;21.00;;;;;;;-128.00;-1.00;-1.00;105620;1253;1004201;-80
2024/02/08 13:36:28;;;;;;;38.40;25.70;;;;;;;-128.00;-1.00;-1.00;105570;1253;1059750;-77
2024/02/08 13:38:55;;;;;;;35.40;21.00;;;;;;;-128.00;-1.00;-1.00;105576;1253;1004794;-76
2024/02/08 13:41:22;;;;;;;32.60;18.40;;;;;;;-128.00;-1.00;-1.00;105614;1252;1004430;-76